Meteo Giornale » Osservazioni meteo Stati Uniti (USA) » Orlando-Sanford
ore: 00:53 - Osservazioni Meteo Orlando-Sanford
Lat. 28° 47' N Lon. 81° 15' W Alt. 17 metri s.l.m.
26 °C
Nuvoloso
Temp. 24 Ore
25 °C
31 °C
Nord
7.4 Km/h
Dew point 26 °C
Umidità 100 %
Visibilità 10 Km
Il sole sorge alle ore 07:03
Il sole tramonta alle ore 19:46
| Data e Ora | Cielo e Fenomeni | T °C | DP °C | Um. % | Pres. hPa | Vis. km | Vento km/h | |
|---|---|---|---|---|---|---|---|---|
| Oggi h: 00:53 | Nuvoloso | 26 | 26 | 100 | 1017 | 10 | N 7.4 | |
| Oggi h: 00:33 | Molto Nuvoloso | 27 | 26 | 94 | 1017 | 10 | N 13 | |
| Ieri h: 23:53 | Sereno | 27 | 26 | 94 | 1017 | 10 | N 9.3 | |
| Ieri h: 22:53 | Sereno | 26 | 26 | 100 | 1017 | 10 | N 9.3 | |
| Ieri h: 21:53 | Sereno | 27 | 26 | 94 | 1017 | 10 | N 9.3 | |
| Ieri h: 20:53 | Nuvoloso | 27 | 25 | 88 | 1017 | 10 | N 0 | |
| Ieri h: 19:53 | Poco Nuvoloso | 27 | 26 | 94 | 1016 | 10 | N 9.3 | |
| Ieri h: 18:53 | Nuvoloso | 27 | 25 | 88 | 1016 | 10 | N 5.5 | |
| Ieri h: 17:53 | Pioggia | 26 | 25 | 94 | 1017 | 10 | O 7.4 | |
| Ieri h: 17:50 | Pioggia | 26 | 25 | 94 | 1017 | 10 | O 11.1 | |
| Ieri h: 17:29 | Molto Nuvoloso | 27 | 25 | 88 | 1017 | 10 | O 16.7 | |
| Ieri h: 17:14 | Temporale nelle vicinanze | 28 | 24 | 78 | 1017 | 10 | E/SE 9.3 | |
| Ieri h: 16:53 | Poco Nuvoloso | 28 | 25 | 83 | 1016 | 10 | E/SE 13 | |
| Ieri h: 16:32 | Temporale nelle vicinanze | 29 | 25 | 79 | 1016 | 10 | SE 16.7 | |
| Ieri h: 15:53 | Pioggia | 29 | 25 | 79 | 1016 | 13 | E/SE 16.7 | |
| Ieri h: 14:53 | Sereno | 31 | 26 | 74 | 1016 | 10 | E 14.8 | |
| Ieri h: 13:53 | Pioggia | 28 | 24 | 78 | 1017 | 10 | NE 7.4 | |
| Ieri h: 13:10 | Pioggia Foschia | 27 | 24 | 83 | 1018 | 8 | E/NE 16.7 | |
| Ieri h: 12:53 | Temporale nelle vicinanze | 27 | 23 | 78 | 1018 | 10 | E/NE 25.9 | |
| Ieri h: 12:51 | Temporale nelle vicinanze | 28 | 23 | 74 | 1018 | 10 | E 25.9 | |
| Ieri h: 11:53 | Poco Nuvoloso | 31 | 24 | 66 | 1018 | 10 | N 5.5 | |
| Ieri h: 10:53 | Nuvoloso | 29 | 24 | 74 | 1018 | 10 | N/NO 7.4 | |
| Ieri h: 10:08 | Molto Nuvoloso | 30 | 26 | 79 | 1018 | 10 | N 0 | |
| Ieri h: 09:53 | Sereno | 29 | 26 | 83 | 1018 | 10 | N 0 | |
| Ieri h: 08:53 | Sereno | 28 | 26 | 88 | 1017 | 10 | N 5.5 | |
| Ieri h: 07:53 | Sereno | 26 | 26 | 100 | 1017 | 10 | N 5.5 | |
| Ieri h: 06:53 | Sereno | 25 | 25 | 100 | 1016 | 10 | N 5.5 | |
| Ieri h: 05:53 | Sereno | 25 | 24 | 94 | 1016 | 10 | N 5.5 | |
| Ieri h: 04:53 | Sereno | 25 | 24 | 94 | 1016 | 10 | N 5.5 | |
| Ieri h: 03:53 | Poco Nuvoloso | 26 | 25 | 94 | 1016 | 10 | N 0 | |
| Ieri h: 03:42 | Nuvoloso | 26 | 25 | 94 | 1016 | 10 | N 0 | |
| Ieri h: 02:53 | Coperto | 26 | 25 | 94 | 1017 | 10 | N 0 | |
| Ieri h: 02:04 | Molto Nuvoloso | 26 | 25 | 94 | 1017 | 10 | N 0 | |
| Ieri h: 01:53 | Nuvoloso | 26 | 24 | 88 | 1017 | 10 | N 0 | |



